createdAt,value
2018-09-01T00:01:57.263Z,11.79
2018-09-01T00:04:26.463Z,11.77
2018-09-01T00:06:55.949Z,11.78
2018-09-01T00:09:25.570Z,11.72
2018-09-01T00:11:54.752Z,11.65
2018-09-01T00:14:23.803Z,11.63
2018-09-01T00:16:53.168Z,11.59
2018-09-01T00:19:23.060Z,11.52
2018-09-01T00:21:52.185Z,11.41
2018-09-01T00:24:21.286Z,11.42
2018-09-01T00:26:50.341Z,11.41
2018-09-01T00:29:19.441Z,11.35
2018-09-01T00:31:48.565Z,11.30
2018-09-01T00:34:17.736Z,11.26
2018-09-01T00:36:46.832Z,11.30
2018-09-01T00:39:15.976Z,11.22
2018-09-01T00:41:45.205Z,11.16
2018-09-01T00:44:14.300Z,11.03
2018-09-01T00:46:43.428Z,11.02
2018-09-01T00:49:12.609Z,10.99
2018-09-01T00:51:41.713Z,10.99
2018-09-01T00:54:11.648Z,11.01
2018-09-01T00:56:40.720Z,10.96
2018-09-01T00:59:09.828Z,10.97
2018-09-01T01:01:39.059Z,10.88
2018-09-01T01:04:09.053Z,10.92
2018-09-01T01:06:38.284Z,10.83
2018-09-01T01:09:07.773Z,10.83
2018-09-01T01:11:36.830Z,10.83
2018-09-01T01:14:06.036Z,10.79
2018-09-01T01:16:35.148Z,10.79
2018-09-01T01:19:04.328Z,10.70
2018-09-01T01:21:33.824Z,10.73
2018-09-01T01:24:02.916Z,10.69
2018-09-01T01:26:32.021Z,10.71
2018-09-01T01:29:01.110Z,10.60
2018-09-01T01:31:31.473Z,10.57
2018-09-01T01:34:00.634Z,10.59
2018-09-01T01:36:30.192Z,10.57
2018-09-01T01:38:59.344Z,10.54
2018-09-01T01:41:28.529Z,10.51
2018-09-01T01:43:57.726Z,10.53
2018-09-01T01:46:26.940Z,10.46
2018-09-01T01:48:56.018Z,10.42
2018-09-01T01:51:25.103Z,10.39
2018-09-01T01:53:54.827Z,10.36
2018-09-01T01:56:24.672Z,10.31
2018-09-01T01:58:53.834Z,10.26
2018-09-01T02:01:23.252Z,10.24
2018-09-01T02:03:52.537Z,10.19
2018-09-01T02:06:21.740Z,10.16
2018-09-01T02:08:51.296Z,10.15
2018-09-01T02:11:20.341Z,10.09
2018-09-01T02:13:49.442Z,10.03
2018-09-01T02:16:18.526Z,10.01
2018-09-01T02:18:47.624Z,9.93
2018-09-01T02:21:16.832Z,9.95
2018-09-01T02:23:46.381Z,9.94
2018-09-01T02:26:15.548Z,9.90
2018-09-01T02:28:45.277Z,9.87
2018-09-01T02:31:14.432Z,9.89
2018-09-01T02:33:43.801Z,9.84
2018-09-01T02:36:12.882Z,9.82
2018-09-01T02:38:42.240Z,9.75
2018-09-01T02:41:11.278Z,9.73
2018-09-01T02:43:40.418Z,9.70
2018-09-01T02:46:09.884Z,9.55
2018-09-01T02:48:39.022Z,9.63
2018-09-01T02:51:08.220Z,9.65
2018-09-01T02:53:37.640Z,9.59
2018-09-01T02:56:07.329Z,9.53
2018-09-01T02:58:36.539Z,9.51
2018-09-01T03:01:11.604Z,9.50
2018-09-01T03:03:40.764Z,9.47
2018-09-01T03:06:09.960Z,9.49
2018-09-01T03:08:39.645Z,9.53
2018-09-01T03:11:08.792Z,9.49
2018-09-01T03:13:38.021Z,9.37
2018-09-01T03:16:07.201Z,9.36
2018-09-01T03:18:36.360Z,9.37
2018-09-01T03:21:05.598Z,9.37
2018-09-01T03:23:34.967Z,9.37
2018-09-01T03:26:04.024Z,9.32
2018-09-01T03:28:33.124Z,9.34
2018-09-01T03:31:02.664Z,9.33
2018-09-01T03:33:32.156Z,9.34
2018-09-01T03:36:01.255Z,9.31
2018-09-01T03:38:30.772Z,9.23
2018-09-01T03:40:59.960Z,9.15
2018-09-01T03:43:29.037Z,9.21
2018-09-01T03:45:58.804Z,9.22
2018-09-01T03:48:27.972Z,9.18
2018-09-01T03:50:58.398Z,9.20
2018-09-01T03:53:27.500Z,9.17
2018-09-01T03:55:56.574Z,9.16
2018-09-01T03:58:25.977Z,9.14
2018-09-01T04:00:56.056Z,9.13
2018-09-01T04:03:25.196Z,9.13
2018-09-01T04:05:54.287Z,9.08
2018-09-01T04:08:23.600Z,9.09
2018-09-01T04:10:53.035Z,9.08
2018-09-01T04:13:22.246Z,9.03
2018-09-01T04:15:51.672Z,9.02
2018-09-01T04:18:20.788Z,9.03
2018-09-01T04:20:49.888Z,9.00
2018-09-01T04:23:19.108Z,9.00
2018-09-01T04:25:48.568Z,8.79
2018-09-01T04:28:17.688Z,8.89
2018-09-01T04:30:47.319Z,8.80
2018-09-01T04:33:16.400Z,8.78
2018-09-01T04:35:45.596Z,8.79
2018-09-01T04:38:15.000Z,8.73
2018-09-01T04:40:44.496Z,8.75
2018-09-01T04:43:13.600Z,8.69
2018-09-01T04:45:44.056Z,8.73
2018-09-01T04:48:13.801Z,8.72
2018-09-01T04:50:42.955Z,8.73
2018-09-01T04:53:12.020Z,8.76
2018-09-01T04:55:41.648Z,8.79
2018-09-01T04:58:10.820Z,8.82
2018-09-01T05:00:40.176Z,8.77
2018-09-01T05:03:09.334Z,8.77
2018-09-01T05:05:38.440Z,8.77
2018-09-01T05:08:09.089Z,8.75
2018-09-01T05:10:38.168Z,8.73
2018-09-01T05:13:07.909Z,8.79
2018-09-01T05:15:37.004Z,8.84
2018-09-01T05:18:06.176Z,8.88
2018-09-01T05:20:35.368Z,8.86
2018-09-01T05:23:04.891Z,8.85
2018-09-01T05:25:34.108Z,8.87
2018-09-01T05:28:03.242Z,8.94
2018-09-01T05:30:32.584Z,9.03
2018-09-01T05:33:02.077Z,9.08
2018-09-01T05:35:31.104Z,9.05
2018-09-01T05:38:00.680Z,9.09
2018-09-01T05:40:29.852Z,9.18
2018-09-01T05:42:59.042Z,9.21
2018-09-01T05:45:29.176Z,9.28
2018-09-01T05:47:58.364Z,9.33
2018-09-01T05:50:27.573Z,9.35
2018-09-01T05:52:57.792Z,9.41
2018-09-01T05:55:27.713Z,9.43
2018-09-01T05:57:56.818Z,9.46
2018-09-01T06:00:25.956Z,9.49
2018-09-01T06:02:55.229Z,9.53
2018-09-01T06:05:24.408Z,9.64
2018-09-01T06:07:53.484Z,9.77
2018-09-01T06:10:22.592Z,9.89
2018-09-01T06:12:51.812Z,9.97
2018-09-01T06:15:21.305Z,10.09
2018-09-01T06:17:50.492Z,9.82
2018-09-01T06:20:19.596Z,9.71
2018-09-01T06:22:49.117Z,9.98
2018-09-01T06:25:18.725Z,10.17
2018-09-01T06:27:50.456Z,10.39
2018-09-01T06:30:24.021Z,10.59
2018-09-01T06:32:53.621Z,10.83
2018-09-01T06:35:22.760Z,11.08
2018-09-01T06:37:51.927Z,11.21
2018-09-01T06:40:21.159Z,11.55
2018-09-01T06:42:50.749Z,12.01
2018-09-01T06:45:19.872Z,12.43
2018-09-01T06:47:49.575Z,12.81
2018-09-01T06:50:18.676Z,13.42
2018-09-01T06:52:47.845Z,14.10
2018-09-01T06:55:17.376Z,15.69
2018-09-01T06:57:46.547Z,16.38
2018-09-01T07:00:15.775Z,16.46
2018-09-01T07:02:44.942Z,16.52
2018-09-01T07:05:14.068Z,16.61
2018-09-01T07:07:43.241Z,16.79
2018-09-01T07:10:12.920Z,17.32
2018-09-01T07:12:42.307Z,17.88
2018-09-01T07:15:11.473Z,19.25
2018-09-01T07:17:41.991Z,20.49
2018-09-01T07:20:11.097Z,21.04
2018-09-01T07:22:40.785Z,22.53
2018-09-01T07:25:10.200Z,23.43
2018-09-01T07:27:39.312Z,24.73
2018-09-01T07:30:11.573Z,25.19
2018-09-01T07:32:41.703Z,25.62
2018-09-01T07:35:10.780Z,25.68
2018-09-01T07:37:41.505Z,25.43
2018-09-01T07:40:10.621Z,24.74
2018-09-01T07:42:39.693Z,24.48
2018-09-01T07:45:09.237Z,24.88
2018-09-01T07:47:38.416Z,22.52
2018-09-01T07:50:07.602Z,23.83
2018-09-01T07:52:36.708Z,26.32
2018-09-01T07:55:05.924Z,27.59
2018-09-01T07:57:34.992Z,29.39
2018-09-01T08:00:05.356Z,26.22
2018-09-01T08:02:34.552Z,29.07
2018-09-01T08:05:03.693Z,30.70
2018-09-01T08:07:32.860Z,31.65
2018-09-01T08:10:02.016Z,28.23
2018-09-01T08:12:31.144Z,30.55
2018-09-01T08:15:00.705Z,32.39
2018-09-01T08:17:29.868Z,33.31
2018-09-01T08:19:59.728Z,31.72
2018-09-01T08:22:28.824Z,30.46
2018-09-01T08:24:57.890Z,28.90
2018-09-01T08:27:27.309Z,31.67
2018-09-01T08:29:56.392Z,32.91
2018-09-01T08:32:25.617Z,33.35
2018-09-01T08:34:54.906Z,32.55
2018-09-01T08:37:24.117Z,32.43
2018-09-01T08:39:53.263Z,33.16
2018-09-01T08:42:22.791Z,33.00
2018-09-01T08:44:52.004Z,33.49
2018-09-01T08:47:22.112Z,32.82
2018-09-01T08:49:51.469Z,30.48
2018-09-01T08:52:20.620Z,28.53
2018-09-01T08:54:49.705Z,27.55
2018-09-01T08:57:19.219Z,26.06
2018-09-01T08:59:48.329Z,25.18
2018-09-01T09:02:17.964Z,24.37
2018-09-01T09:04:47.132Z,27.23
2018-09-01T09:07:16.300Z,30.06
2018-09-01T09:09:45.824Z,29.43
2018-09-01T09:12:14.856Z,30.66
2018-09-01T09:14:44.025Z,30.26
2018-09-01T09:17:13.197Z,28.50
2018-09-01T09:19:42.598Z,25.76
2018-09-01T09:22:12.236Z,23.68
2018-09-01T09:24:41.433Z,24.60
2018-09-01T09:27:10.616Z,23.68
2018-09-01T09:29:39.825Z,23.86
2018-09-01T09:32:09.012Z,26.13
2018-09-01T09:34:38.859Z,25.35
2018-09-01T09:37:08.926Z,25.20
2018-09-01T09:39:38.028Z,25.54
2018-09-01T09:42:07.373Z,24.13
2018-09-01T09:44:36.524Z,25.58
2018-09-01T09:47:06.283Z,26.06
2018-09-01T09:49:35.384Z,26.50
2018-09-01T09:52:04.448Z,24.38
2018-09-01T09:54:33.624Z,25.56
2018-09-01T09:57:02.753Z,25.80
2018-09-01T09:59:31.964Z,27.47
2018-09-01T10:02:01.220Z,27.43
2018-09-01T10:04:30.673Z,27.14
2018-09-01T10:06:59.817Z,25.03
2018-09-01T10:09:28.861Z,27.70
2018-09-01T10:11:59.180Z,27.22
2018-09-01T10:14:28.301Z,26.43
2018-09-01T10:16:57.428Z,24.92
2018-09-01T10:19:26.989Z,24.24
2018-09-01T10:21:56.080Z,24.72
2018-09-01T10:24:26.568Z,24.10
2018-09-01T10:26:55.685Z,23.64
2018-09-01T10:29:24.876Z,25.45
2018-09-01T10:31:53.968Z,25.75
2018-09-01T10:34:23.040Z,28.47
2018-09-01T10:36:52.876Z,26.36
2018-09-01T10:39:22.076Z,26.29
2018-09-01T10:41:51.379Z,26.37
2018-09-01T10:44:20.606Z,25.96
2018-09-01T10:46:50.872Z,24.56
2018-09-01T10:49:20.521Z,26.32
2018-09-01T10:51:49.679Z,26.57
2018-09-01T10:54:18.779Z,26.30
2018-09-01T10:56:47.872Z,25.50
2018-09-01T10:59:16.993Z,24.30
2018-09-01T11:01:47.564Z,22.39
2018-09-01T11:04:17.761Z,22.80
2018-09-01T11:06:46.907Z,22.88
2018-09-01T11:09:16.679Z,23.97
2018-09-01T11:11:45.773Z,24.53
2018-09-01T11:14:14.941Z,24.03
2018-09-01T11:16:44.125Z,22.63
2018-09-01T11:19:13.628Z,23.19
2018-09-01T11:21:42.880Z,24.48
2018-09-01T11:24:11.964Z,25.19
2018-09-01T11:26:41.456Z,25.99
2018-09-01T11:29:11.472Z,26.20
2018-09-01T11:31:40.635Z,27.76
2018-09-01T11:34:10.044Z,28.59
2018-09-01T11:36:40.292Z,28.79
2018-09-01T11:39:11.440Z,27.20
2018-09-01T11:41:40.864Z,27.05
2018-09-01T11:44:09.908Z,26.94
2018-09-01T11:46:39.856Z,28.14
2018-09-01T11:49:09.033Z,26.02
2018-09-01T11:51:38.332Z,24.47
2018-09-01T11:54:07.969Z,24.75
2018-09-01T11:56:37.896Z,26.02
2018-09-01T11:59:07.236Z,26.41
2018-09-01T12:01:36.766Z,26.35
2018-09-01T12:04:06.197Z,27.38
2018-09-01T12:06:35.821Z,27.57
2018-09-01T12:09:06.195Z,28.38
2018-09-01T12:11:35.272Z,28.74
2018-09-01T12:14:04.370Z,27.19
2018-09-01T12:16:34.018Z,24.30
2018-09-01T12:19:04.223Z,24.02
2018-09-01T12:21:34.048Z,24.16
2018-09-01T12:24:03.117Z,24.58
2018-09-01T12:26:32.241Z,25.29
2018-09-01T12:29:01.679Z,26.44
2018-09-01T12:31:30.807Z,25.82
2018-09-01T12:34:00.024Z,25.43
2018-09-01T12:36:29.268Z,26.11
2018-09-01T12:38:58.676Z,26.24
2018-09-01T12:41:27.796Z,24.10
2018-09-01T12:43:57.667Z,26.28
2018-09-01T12:46:27.052Z,24.80
2018-09-01T12:48:56.212Z,26.82
2018-09-01T12:51:26.165Z,25.77
2018-09-01T12:53:55.360Z,26.60
2018-09-01T12:56:24.968Z,27.53
2018-09-01T12:58:54.152Z,27.46
2018-09-01T13:01:24.303Z,28.38
2018-09-01T13:03:53.597Z,27.59
2018-09-01T13:06:23.472Z,28.28
2018-09-01T13:08:53.116Z,28.26
2018-09-01T13:11:23.516Z,27.63
2018-09-01T13:13:52.643Z,26.47
2018-09-01T13:16:22.210Z,26.15
2018-09-01T13:18:51.316Z,27.85
2018-09-01T13:21:21.688Z,26.93
2018-09-01T13:23:50.824Z,26.36
2018-09-01T13:26:20.021Z,26.35
2018-09-01T13:28:49.569Z,26.10
2018-09-01T13:31:19.200Z,25.10
2018-09-01T13:33:49.093Z,26.72
2018-09-01T13:36:18.236Z,27.03
2018-09-01T13:38:47.365Z,26.96
2018-09-01T13:41:16.452Z,26.16
2018-09-01T13:43:45.652Z,26.97
2018-09-01T13:46:15.181Z,26.60
2018-09-01T13:48:45.976Z,26.30
2018-09-01T13:51:15.284Z,27.75
2018-09-01T13:53:44.463Z,28.93
2018-09-01T13:56:14.756Z,29.10
2018-09-01T13:58:44.008Z,28.95
2018-09-01T14:01:15.476Z,28.88
2018-09-01T14:03:44.643Z,28.15
2018-09-01T14:06:13.896Z,25.74
2018-09-01T14:08:43.348Z,25.44
2018-09-01T14:11:12.535Z,24.38
2018-09-01T14:13:41.748Z,24.60
2018-09-01T14:16:11.148Z,24.74
2018-09-01T14:18:41.268Z,26.12
2018-09-01T14:21:10.419Z,25.99
2018-09-01T14:23:39.572Z,24.11
2018-09-01T14:26:09.063Z,25.36
2018-09-01T14:28:38.277Z,26.47
2018-09-01T14:31:07.412Z,26.78
2018-09-01T14:33:36.863Z,25.61
2018-09-01T14:36:06.613Z,25.36
2018-09-01T14:38:36.468Z,26.04
2018-09-01T14:41:05.729Z,26.67
2018-09-01T14:43:35.088Z,26.77
2018-09-01T14:46:04.168Z,26.13
2018-09-01T14:48:33.280Z,26.67
2018-09-01T14:51:02.353Z,24.39
2018-09-01T14:53:31.476Z,23.39
2018-09-01T14:56:02.408Z,23.65
2018-09-01T14:58:32.020Z,23.83
2018-09-01T15:01:01.480Z,22.91
2018-09-01T15:03:31.440Z,23.19
2018-09-01T15:06:01.468Z,23.33
2018-09-01T15:08:30.801Z,23.20
2018-09-01T15:11:01.017Z,23.81
2018-09-01T15:13:30.292Z,23.74
2018-09-01T15:15:59.455Z,23.08
2018-09-01T15:18:28.888Z,23.06
2018-09-01T15:20:58.064Z,22.67
2018-09-01T15:23:27.420Z,21.85
2018-09-01T15:25:58.968Z,21.90
2018-09-01T15:28:28.200Z,21.91
2018-09-01T15:30:58.280Z,22.05
2018-09-01T15:33:27.458Z,22.23
2018-09-01T15:35:56.656Z,22.78
2018-09-01T15:38:25.848Z,22.70
2018-09-01T15:40:55.343Z,22.59
2018-09-01T15:43:24.528Z,22.21
2018-09-01T15:45:55.079Z,21.97
2018-09-01T15:48:24.300Z,21.55
2018-09-01T15:50:54.575Z,21.73
2018-09-01T15:53:24.439Z,21.97
2018-09-01T15:55:54.360Z,21.89
2018-09-01T15:58:23.508Z,21.54
2018-09-01T16:00:53.421Z,21.37
2018-09-01T16:03:23.076Z,21.61
2018-09-01T16:05:52.541Z,21.78
2018-09-01T16:08:21.601Z,21.84
2018-09-01T16:10:51.656Z,21.39
2018-09-01T16:13:20.745Z,21.53
2018-09-01T16:15:49.857Z,21.08
2018-09-01T16:18:19.380Z,21.06
2018-09-01T16:20:48.946Z,20.78
2018-09-01T16:23:18.452Z,20.71
2018-09-01T16:25:47.892Z,20.93
2018-09-01T16:28:17.067Z,20.78
2018-09-01T16:30:46.253Z,20.88
2018-09-01T16:33:15.356Z,21.08
2018-09-01T16:35:44.538Z,21.20
2018-09-01T16:38:13.652Z,21.12
2018-09-01T16:40:43.008Z,20.97
2018-09-01T16:43:12.160Z,20.95
2018-09-01T16:45:41.256Z,20.80
2018-09-01T16:48:11.124Z,20.74
2018-09-01T16:50:40.389Z,20.58
2018-09-01T16:53:09.452Z,20.52
2018-09-01T16:55:39.308Z,20.40
2018-09-01T16:58:08.428Z,20.19
2018-09-01T17:00:37.754Z,20.19
2018-09-01T17:03:07.164Z,20.21
2018-09-01T17:05:36.428Z,20.27
2018-09-01T17:08:05.816Z,20.12
2018-09-01T17:10:35.200Z,20.16
2018-09-01T17:13:04.356Z,20.32
2018-09-01T17:15:33.805Z,20.41
2018-09-01T17:18:03.789Z,20.46
2018-09-01T17:20:32.880Z,20.41
2018-09-01T17:23:02.061Z,20.34
2018-09-01T17:25:32.020Z,20.30
2018-09-01T17:28:01.198Z,20.30
2018-09-01T17:30:30.424Z,20.29
2018-09-01T17:32:59.995Z,20.25
2018-09-01T17:35:29.212Z,20.16
2018-09-01T17:37:58.380Z,20.06
2018-09-01T17:40:27.733Z,19.86
2018-09-01T17:42:57.144Z,19.73
2018-09-01T17:45:26.276Z,19.49
2018-09-01T17:47:55.377Z,19.28
2018-09-01T17:50:24.466Z,19.20
2018-09-01T17:52:53.561Z,19.08
2018-09-01T17:55:22.835Z,18.89
2018-09-01T17:57:51.964Z,18.70
2018-09-01T18:00:21.096Z,18.60
2018-09-01T18:02:50.600Z,18.43
2018-09-01T18:05:19.761Z,18.26
2018-09-01T18:07:49.880Z,18.11
2018-09-01T18:10:18.941Z,17.90
2018-09-01T18:12:48.889Z,17.82
2018-09-01T18:15:18.012Z,17.66
2018-09-01T18:17:47.500Z,17.52
2018-09-01T18:20:16.793Z,17.40
2018-09-01T18:22:46.012Z,17.27
2018-09-01T18:25:15.130Z,17.10
2018-09-01T18:27:44.304Z,17.08
2018-09-01T18:30:13.401Z,17.04
2018-09-01T18:32:42.604Z,16.82
2018-09-01T18:35:12.180Z,16.77
2018-09-01T18:37:41.276Z,16.62
2018-09-01T18:40:10.321Z,16.49
2018-09-01T18:42:39.493Z,16.38
2018-09-01T18:45:09.312Z,16.24
2018-09-01T18:47:38.488Z,16.10
2018-09-01T18:50:07.837Z,15.97
2018-09-01T18:52:37.804Z,15.83
2018-09-01T18:55:08.068Z,15.72
2018-09-01T18:57:37.076Z,15.65
2018-09-01T19:00:06.948Z,15.57
2018-09-01T19:02:36.028Z,15.50
2018-09-01T19:05:05.240Z,15.40
2018-09-01T19:07:36.168Z,15.27
2018-09-01T19:10:05.380Z,15.21
2018-09-01T19:12:34.448Z,15.11
2018-09-01T19:15:03.590Z,14.99
2018-09-01T19:17:33.512Z,14.92
2018-09-01T19:20:02.651Z,14.88
2018-09-01T19:22:32.117Z,14.79
2018-09-01T19:25:01.256Z,14.67
2018-09-01T19:27:30.482Z,14.68
2018-09-01T19:30:00.018Z,14.67
2018-09-01T19:32:29.180Z,14.59
2018-09-01T19:34:58.413Z,14.55
2018-09-01T19:37:27.900Z,14.47
2018-09-01T19:39:57.080Z,14.27
2018-09-01T19:42:26.284Z,14.20
2018-09-01T19:44:55.965Z,14.23
2018-09-01T19:47:24.961Z,14.14
2018-09-01T19:49:54.209Z,13.99
2018-09-01T19:52:23.804Z,13.97
2018-09-01T19:54:52.983Z,13.88
2018-09-01T19:57:22.059Z,13.71
2018-09-01T19:59:51.209Z,13.67
2018-09-01T20:02:20.357Z,13.68
2018-09-01T20:04:49.484Z,13.66
2018-09-01T20:07:18.784Z,13.63
2018-09-01T20:09:48.380Z,13.57
2018-09-01T20:12:17.576Z,13.52
2018-09-01T20:14:47.977Z,13.43
2018-09-01T20:17:17.126Z,13.44
2018-09-01T20:19:46.248Z,13.33
2018-09-01T20:22:15.712Z,13.30
2018-09-01T20:24:44.764Z,13.24
2018-09-01T20:27:14.809Z,13.23
2018-09-01T20:29:43.892Z,13.16
2018-09-01T20:32:13.074Z,13.10
2018-09-01T20:34:46.588Z,12.99
2018-09-01T20:37:17.408Z,12.93
2018-09-01T20:39:48.202Z,12.90
2018-09-01T20:42:17.368Z,12.89
2018-09-01T20:44:46.439Z,12.85
2018-09-01T20:47:16.060Z,12.77
2018-09-01T20:49:45.301Z,12.62
2018-09-01T20:52:14.461Z,12.57
2018-09-01T20:54:43.644Z,12.62
2018-09-01T20:57:12.853Z,12.60
2018-09-01T20:59:42.064Z,12.51
2018-09-01T21:02:11.452Z,12.49
2018-09-01T21:04:41.572Z,12.39
2018-09-01T21:07:11.477Z,12.44
2018-09-01T21:09:40.834Z,12.40
2018-09-01T21:12:09.984Z,12.44
2018-09-01T21:14:39.660Z,12.44
2018-09-01T21:17:08.932Z,12.45
2018-09-01T21:19:38.320Z,12.39
2018-09-01T21:22:07.351Z,12.36
2018-09-01T21:24:36.601Z,12.29
2018-09-01T21:27:06.237Z,12.23
2018-09-01T21:29:35.625Z,12.15
2018-09-01T21:32:04.780Z,12.18
2018-09-01T21:34:34.299Z,12.16
2018-09-01T21:37:03.481Z,12.11
2018-09-01T21:39:32.597Z,12.10
2018-09-01T21:42:02.008Z,12.12
2018-09-01T21:44:31.103Z,12.03
2018-09-01T21:47:00.300Z,12.01
2018-09-01T21:49:29.402Z,11.93
2018-09-01T21:51:58.522Z,11.90
2018-09-01T21:54:27.880Z,11.82
2018-09-01T21:56:57.302Z,11.78
2018-09-01T21:59:26.318Z,11.76
2018-09-01T22:02:00.657Z,11.73
2018-09-01T22:04:33.949Z,11.68
2018-09-01T22:07:03.128Z,11.50
2018-09-01T22:09:32.197Z,11.46
2018-09-01T22:12:01.410Z,11.50
2018-09-01T22:14:30.812Z,11.53
2018-09-01T22:16:59.933Z,11.48
2018-09-01T22:19:29.062Z,11.39
2018-09-01T22:21:58.176Z,11.41
2018-09-01T22:24:27.280Z,11.43
2018-09-01T22:26:56.447Z,11.39
2018-09-01T22:29:26.100Z,11.36
2018-09-01T22:31:55.156Z,11.31
2018-09-01T22:34:24.208Z,11.21
2018-09-01T22:36:54.204Z,11.17
2018-09-01T22:39:23.264Z,11.16
2018-09-01T22:41:52.485Z,11.16
2018-09-01T22:44:22.385Z,11.12
2018-09-01T22:46:51.616Z,11.05
2018-09-01T22:49:20.773Z,11.00
2018-09-01T22:51:50.212Z,10.88
2018-09-01T22:54:19.336Z,10.84
2018-09-01T22:56:48.405Z,10.89
2018-09-01T22:59:17.782Z,10.84
2018-09-01T23:01:47.309Z,10.61
2018-09-01T23:04:16.468Z,10.54
2018-09-01T23:06:45.564Z,10.41
2018-09-01T23:09:14.680Z,10.46
2018-09-01T23:11:43.880Z,10.42
2018-09-01T23:14:13.064Z,10.44
2018-09-01T23:16:43.224Z,10.51
2018-09-01T23:19:12.264Z,10.57
2018-09-01T23:21:41.359Z,10.61
2018-09-01T23:24:10.870Z,10.65
2018-09-01T23:26:39.981Z,10.71
2018-09-01T23:29:09.220Z,10.70
2018-09-01T23:31:38.704Z,10.74
2018-09-01T23:34:07.865Z,10.71
2018-09-01T23:36:36.984Z,10.74
2018-09-01T23:39:08.832Z,10.76
2018-09-01T23:41:38.014Z,10.48
2018-09-01T23:44:07.481Z,10.53
2018-09-01T23:46:36.792Z,10.53
2018-09-01T23:49:05.944Z,10.56
2018-09-01T23:51:35.509Z,10.46
2018-09-01T23:54:04.838Z,10.34
2018-09-01T23:56:34.609Z,10.33
2018-09-01T23:59:04.564Z,10.29
